Coral, Illinois
Current Conditions -  °F | °C
As of 7:15 AM on Friday 24 Oct 2014 (Local Time) from KDKB Reporting Station
Haze Haze  
Wind Chill: 47°   Ceiling: 1200
Heat Index: 47°   Visibility: 5mi
Dew Point: 46°   Wind: 0mph
Humidity: 94%   Direction: NA
Pressure: 30.07"   Gusts: NA
Location:  42.2385°N, 88.6273°W
Report Text: KDKB 241215Z AUTO 00000KT 5SM BR OVC012 08/08 A3007 RMK AO2 T00840075
Loading
Personal Weather Stations






























Interactive Weather Map
Tropical Storm Tracking
New forecast layout! Learn more

10-Day Weather Forecast

Advertisements
Track Severe Weather on mobile